Aransas Pass — WDF5061 — position and weather

sailwx.info

Track history (hours):
 
Tides and Currents Weather Stations Pressure Air Temp Water Temp Dewpoint Dewpoint Depression Visibility Wind Speed Wind Dir Waves Ship Positions

Aransas Pass

Owner: Higman Barge Lines, Inc., Orange, TX. More information available from US FCC via Universal Licensing System and Coast Guard Vessel Documentation Center.

Last reported at 2014-Nov-28 13:26 UTC. Time now 2014-Nov-28 22:52 UTC.
Position N 29°44' W 095°08'.

Length 26 m; draft 3 m.

Type: Towing. MMSI: 367458930.

Date/timePositionNaut miles runAvg speedWind from/ knotsBaromVisibWave heightAir tempDewpointWater temp
2014-Nov-28 13:26N 29°44' W 095°08'1 0.6
2014-Nov-28 12:27N 29°44' W 095°08'4 4.5
2014-Nov-28 11:33N 29°44' W 095°03'6 6.2
2014-Nov-28 10:33N 29°39' W 094°58'8 7.7
2014-Nov-28 09:33N 29°32' W 094°54'121 4.2
2014-Nov-27 04:33N 29°55' W 092°37'55 3.9
2014-Nov-26 14:27N 29°45' W 091°35'5 5.3
2014-Nov-26 13:33N 29°42' W 091°31'5 5.0
2014-Nov-26 12:33N 29°40' W 091°26'3 3.1
2014-Nov-26 11:33N 29°39' W 091°22'4 4.3
2014-Nov-26 10:33N 29°39' W 091°17'5 5.1
2014-Nov-26 09:33N 29°41' W 091°12'3 2.6
2014-Nov-26 08:33N 29°41' W 091°09'3 2.7
2014-Nov-26 07:33N 29°39' W 091°07'4 4.1
2014-Nov-26 06:33N 29°37' W 091°03'5 3.9
2014-Nov-26 05:19N 29°36' W 090°58'18 3.8
2014-Nov-26 00:31N 29°35' W 090°37'6 4.5
2014-Nov-25 23:11N 29°34' W 090°30'35 3.5
2014-Nov-25 13:04N 29°55' W 089°58'3 1.1
2014-Nov-25 10:24N 29°57' W 090°01'20 0.8
2014-Nov-24 09:24N 29°57' W 090°23'0 0.0
2014-Nov-24 08:31N 29°57' W 090°23'  
2014-Nov-21 02:30N 29°57' W 090°09'4 4.2
2014-Nov-21 01:33N 29°55' W 090°05'5 4.5
2014-Nov-21 00:31N 29°56' W 089°60'2 1.5
2014-Nov-20 23:32N 29°55' W 089°59'1 1.2
2014-Nov-20 22:32N 29°54' W 089°60'  
Track history (hours):
 
Tides and Currents Weather Stations Pressure Air Temp Water Temp Dewpoint Dewpoint Depression Visibility Wind Speed Wind Dir Waves Ship Positions

Aransas Pass

Owner: Higman Barge Lines, Inc., Orange, TX. More information available from US FCC via Universal Licensing System and Coast Guard Vessel Documentation Center.

Last reported at 2014-Nov-28 13:26 UTC. Time now 2014-Nov-28 22:52 UTC.
Position N 29°44' W 095°08'.

Length 26 m; draft 3 m.

Type: Towing. MMSI: 367458930.

Date/timePositionNaut miles runAvg speedWind from/ knotsBaromVisibWave heightAir tempDewpointWater temp
2014-Nov-28 13:26N 29°44' W 095°08'1 0.6
2014-Nov-28 12:27N 29°44' W 095°08'4 4.5
2014-Nov-28 11:33N 29°44' W 095°03'6 6.2
2014-Nov-28 10:33N 29°39' W 094°58'8 7.7
2014-Nov-28 09:33N 29°32' W 094°54'121 4.2
2014-Nov-27 04:33N 29°55' W 092°37'55 3.9
2014-Nov-26 14:27N 29°45' W 091°35'5 5.3
2014-Nov-26 13:33N 29°42' W 091°31'5 5.0
2014-Nov-26 12:33N 29°40' W 091°26'3 3.1
2014-Nov-26 11:33N 29°39' W 091°22'4 4.3
2014-Nov-26 10:33N 29°39' W 091°17'5 5.1
2014-Nov-26 09:33N 29°41' W 091°12'3 2.6
2014-Nov-26 08:33N 29°41' W 091°09'3 2.7
2014-Nov-26 07:33N 29°39' W 091°07'4 4.1
2014-Nov-26 06:33N 29°37' W 091°03'5 3.9
2014-Nov-26 05:19N 29°36' W 090°58'18 3.8
2014-Nov-26 00:31N 29°35' W 090°37'6 4.5
2014-Nov-25 23:11N 29°34' W 090°30'35 3.5
2014-Nov-25 13:04N 29°55' W 089°58'3 1.1
2014-Nov-25 10:24N 29°57' W 090°01'20 0.8
2014-Nov-24 09:24N 29°57' W 090°23'0 0.0
2014-Nov-24 08:31N 29°57' W 090°23'  
2014-Nov-21 02:30N 29°57' W 090°09'4 4.2
2014-Nov-21 01:33N 29°55' W 090°05'5 4.5
2014-Nov-21 00:31N 29°56' W 089°60'2 1.5
2014-Nov-20 23:32N 29°55' W 089°59'1 1.2
2014-Nov-20 22:32N 29°54' W 089°60'  

Dump ship's entire track history